TJSJ

San Juan

Airport
ICAO code
TJSJ
Summary
ICAO Region
CARSAM
ICAO Territory
Location

Carolina,

Coordinates
18° 26' 22" N , 66° 0' 6" W
KCC
Metar
Observation
TJSJ 300956Z 08005KT 10SM FEW024 SCT038 SCT075 24/23 A2983 RMK AO2 SLP102 T02440228
Station
San Juan, Luis Munoz Marin International Airport
Date/Time
2022-09-30 09:56:00
Wind direction
80°
Wind speed
05 kts
Lowest cloud amount
few clouds
Temperature
24.4°C
Dew point
22.8°C
Humidity
90%
Weather condition
n/a

Description

Luis Muñoz Marín International Airport is a joint civil-military public airport located in Carolina, Puerto Rico, 5 km southeast of San Juan.

Climatology

Tropical Monsoon climate (Köppen climate classification Am) - monthly mean temperatures above 18°C in every month of the year and features wet and dry seasons. A tropical monsoon climate typically features less pronounced dry seasons than a tropical savanna climate and see less variance in temperatures during the course of the year. The driest month nearly always occurs at or soon after the "winter" solstice.

Runways

Designator Length Width Surface Rops
10/28 2443 46 CON Yes/Yes
8/26 3049 61 ASP Yes/Yes

Airport map

Aerial View

SKYbrary Partners:

Safety knowledge contributed by: